Latest Weather Observations for Thevenard Island

IDW60801

Issued at 9:23 am WST Tuesday 22 September 2020 (issued every 10 minutes, with the page automatically refreshed every 10 minutes)

About weather observations | Map of weather stations | Latest weather observations for WA | Other Formats
Station Details ID: 005084 Name: THEVENARD ISLAND Lat: -21.46 Lon: 115.02 Height: 5.0 m
Data from the previous 72 hours. | See also: Recent months at Thevenard Island
Date/Time
WST
Temp
°C
App
Temp
°C
Dew
Point
°C
Rel
Hum
%
Delta-T
°C
Wind Press
QNH
hPa
Press
MSL
hPa
Rain since
9am
mm
Dir  Spd
km/h
Gust
km/h
Spd
kts
Gust
kts
22/09:00am 23.9 18.6 6.7 33 8.9 SE 24 30 13 16 1016.2 1016.2 0.0
22/08:30am 22.4 16.6 8.1 40 7.5 SE 28 33 15 18 1016.2 1016.2 0.0
22/08:00am 21.8 14.5 5.3 34 8.2 SE 33 41 18 22 1016.0 1016.0 0.0
22/07:30am 21.3 13.6 5.2 35 8.0 SE 35 43 19 23 1015.7 1015.7 0.0
22/07:00am 20.7 12.9 5.1 36 7.6 SE 35 43 19 23 1015.5 1015.5 0.0
22/06:30am 20.6 12.7 4.2 34 7.9 SSE 35 44 19 24 1015.3 1015.3 0.0
22/06:00am 20.6 12.8 5.0 36 7.6 SSE 35 41 19 22 1014.9 1014.9 0.0
22/05:30am 20.7 12.9 5.1 36 7.7 SSE 35 43 19 23 1014.6 1014.6 0.0
22/05:00am 20.7 13.3 6.6 40 7.1 SE 35 44 19 24 1014.5 1014.5 0.0
22/04:30am 21.1 13.1 5.9 37 7.6 SSE 37 46 20 25 1014.1 1014.1 0.0
22/04:00am 21.2 13.5 7.1 40 7.2 SSE 37 44 20 24 1014.0 1014.0 0.0
22/03:30am 21.4 12.8 4.5 33 8.2 SSE 39 46 21 25 1013.9 1013.9 0.0
22/03:00am 21.6 14.3 7.1 39 7.4 SSE 35 44 19 24 1014.0 1014.0 0.0
22/02:30am 21.8 14.8 8.3 42 7.1 S 35 46 19 25 1014.4 1014.4 0.0
22/02:00am 22.1 14.8 7.1 38 7.7 SSE 35 44 19 24 1014.5 1014.5 0.0
22/01:30am 22.4 15.1 7.0 37 7.9 SSE 35 41 19 22 1014.6 1014.6 0.0
22/01:00am 22.6 14.9 5.5 33 8.6 S 35 44 19 24 1014.7 1014.7 0.0
22/12:30am 22.8 15.8 8.5 40 7.6 S 35 43 19 23 1015.0 1015.0 0.0
22/12:00am 23.2 16.2 6.1 33 8.7 S 32 41 17 22 1015.1 1015.1 0.0
 
Date/Time
WST
Temp
°C
App
Temp
°C
Dew
Point
°C
Rel
Hum
%
Delta-T
°C
Wind Press
QNH
hPa
Press
MSL
hPa
Rain since
9am
mm
Dir  Spd
km/h
Gust
km/h
Spd
kts
Gust
kts
21/11:30pm 23.5 16.6 6.3 33 8.8 S 32 37 17 20 1015.2 1015.2 0.0
21/11:00pm 23.6 17.6 8.8 39 7.9 S 30 37 16 20 1015.2 1015.2 0.0
21/10:30pm 23.9 18.5 9.5 40 7.8 S 28 35 15 19 1015.4 1015.4 0.0
21/10:00pm 23.9 19.2 10.6 43 7.4 S 26 32 14 17 1015.4 1015.4 0.0
21/09:30pm 23.9 19.8 11.6 46 6.9 S 24 30 13 16 1015.5 1015.5 0.0
21/09:00pm 23.5 21.2 14.2 56 5.5 SSW 19 26 10 14 1015.4 1015.4 0.0
21/08:30pm 19.5 19.7 15.8 79 2.2 S 9 15 5 8 1015.2 1015.2 0.0
21/08:00pm 20.5 21.0 16.5 78 2.4 WSW 9 9 5 5 1015.0 1015.0 0.0
21/07:30pm 21.4 21.2 16.6 74 2.9 W 13 15 7 8 1014.8 1014.8 0.0
21/07:00pm 22.3 21.5 16.1 68 3.7 W 15 20 8 11 1014.6 1014.6 0.0
21/06:30pm 22.9 20.9 15.0 61 4.7 W 19 26 10 14 1014.3 1014.3 0.0
21/06:00pm 23.8 21.1 14.5 56 5.5 WSW 22 30 12 16 1014.2 1014.2 0.0
21/05:30pm 24.5 21.2 14.0 52 6.2 WSW 24 32 13 17 1014.1 1014.1 0.0
21/05:00pm 25.1 21.6 14.6 52 6.3 WSW 26 33 14 18 1014.1 1014.1 0.0
21/04:30pm 25.7 21.7 12.9 45 7.4 WSW 26 35 14 19 1014.0 1014.0 0.0
21/04:00pm 26.8 22.1 9.2 33 9.7 WSW 24 32 13 17 1014.1 1014.1 0.0
21/03:30pm 27.4 22.0 6.2 26 11.1 WSW 24 32 13 17 1014.2 1014.2 0.0
21/03:00pm 27.8 23.0 5.4 24 11.6 WSW 20 28 11 15 1014.3 1014.3 0.0
21/02:30pm 28.4 23.5 -0.7 15 13.6 WSW 15 24 8 13 1014.6 1014.6 0.0
21/02:00pm 27.5 23.5 2.6 20 12.2 SW 13 17 7 9 1014.9 1014.9 0.0
21/01:30pm 27.7 23.3 0.5 17 12.9 SSW 13 15 7 8 1015.3 1015.3 0.0
21/01:00pm 27.2 23.8 6.0 26 11.0 SSE 13 15 7 8 1015.8 1015.8 0.0
21/12:30pm 27.2 22.4 5.5 25 11.2 SE 20 26 11 14 1016.2 1016.2 0.0
21/12:00pm 26.9 20.9 3.4 22 11.6 SE 24 30 13 16 1016.6 1016.6 0.0
21/11:30am 26.0 19.9 2.7 22 11.3 SE 24 32 13 17 1017.0 1017.0 0.0
21/11:00am 25.7 19.3 5.3 27 10.4 SE 28 35 15 19 1017.4 1017.4 0.0
21/10:30am 24.3 16.3 3.6 26 10.1 SSE 35 41 19 22 1017.8 1017.8 0.0
21/10:00am 23.6 16.1 4.5 29 9.4 SSE 33 39 18 21 1018.0 1018.0 0.0
21/09:30am 22.6 14.6 3.7 29 9.2 SSE 35 43 19 23 1018.2 1018.2 0.0
21/09:00am 21.3 12.4 3.0 30 8.6 SSE 39 46 21 25 1018.3 1018.3 0.0
21/08:30am 21.0 12.8 6.5 39 7.3 SSE 39 48 21 26 1018.4 1018.4 0.0
21/08:00am 19.8 12.3 6.5 42 6.7 SSE 35 44 19 24 1018.1 1018.1 0.0
21/07:30am 19.3 11.2 7.1 45 6.2 SSE 39 44 21 24 1017.8 1017.8 0.0
21/07:00am 19.1 11.3 8.4 50 5.5 SSE 39 48 21 26 1017.6 1017.6 0.0
21/06:30am 18.8 10.8 7.6 48 5.7 S 39 50 21 27 1017.1 1017.1 0.0
21/06:00am 18.9 11.1 8.3 50 5.5 S 39 48 21 26 1017.0 1017.0 0.0
21/05:30am 19.0 10.9 8.6 51 5.4 S 41 48 22 26 1016.7 1016.7 0.0
21/05:00am 19.0 10.2 7.4 47 5.9 S 43 50 23 27 1016.1 1016.1 0.0
21/04:30am 19.3 11.0 7.7 47 5.9 S 41 50 22 27 1015.7 1015.7 0.0
21/04:00am 19.5 10.8 7.9 47 6.0 S 43 54 23 29 1015.6 1015.6 0.0
21/03:30am 20.1 12.0 7.1 43 6.6 S 39 48 21 26 1015.6 1015.6 0.0
21/03:00am 20.6 11.6 6.2 39 7.2 S 43 54 23 29 1015.4 1015.4 0.0
21/02:30am 21.2 12.2 6.3 38 7.5 S 43 54 23 29 1015.5 1015.5 0.0
21/02:00am 21.5 12.4 5.8 36 7.8 S 43 52 23 28 1015.6 1015.6 0.0
21/01:30am 21.8 12.3 4.8 33 8.4 S 44 57 24 31 1015.5 1015.5 0.0
21/01:00am 22.0 13.1 6.7 37 7.8 S 43 54 23 29 1015.9 1015.9 0.0
21/12:30am 22.2 13.7 6.8 37 7.9 S 41 52 22 28 1015.9 1015.9 0.0
21/12:00am 22.6 13.9 7.6 38 7.8 S 43 54 23 29 1015.9 1015.9 0.0
 
Date/Time
WST
Temp
°C
App
Temp
°C
Dew
Point
°C
Rel
Hum
%
Delta-T
°C
Wind Press
QNH
hPa
Press
MSL
hPa
Rain since
9am
mm
Dir  Spd
km/h
Gust
km/h
Spd
kts
Gust
kts
20/11:30pm 22.8 13.7 6.1 34 8.5 S 43 54 23 29 1015.8 1015.8 0.0
20/11:00pm 23.1 15.6 9.5 42 7.3 S 39 50 21 27 1016.1 1016.1 0.0
20/10:30pm 23.4 15.2 6.7 34 8.6 S 39 50 21 27 1016.3 1016.3 0.0
20/10:00pm 23.5 16.6 7.2 35 8.5 S 33 41 18 22 1016.4 1016.4 0.0
20/09:30pm 23.9 17.0 7.1 34 8.7 S 33 43 18 23 1016.4 1016.4 0.0
20/09:00pm 24.3 17.4 8.7 37 8.4 S 35 44 19 24 1016.2 1016.2 0.0
20/08:30pm 24.4 18.0 9.2 38 8.2 S 33 41 18 22 1015.7 1015.7 0.0
20/08:00pm 24.8 18.8 8.7 36 8.7 S 30 37 16 20 1015.5 1015.5 0.0
20/07:30pm 25.0 19.3 9.7 38 8.4 SSW 30 35 16 19 1015.1 1015.1 0.0
20/07:00pm 25.0 20.9 12.6 46 7.1 SSW 26 30 14 16 1014.7 1014.7 0.0
20/06:30pm 25.6 20.2 11.0 40 8.2 S 30 37 16 20 1014.2 1014.2 0.0
20/06:00pm 25.7 21.9 12.5 44 7.6 S 24 30 13 16 1013.9 1013.9 0.0
20/05:30pm 26.3 22.7 13.1 44 7.7 S 24 30 13 16 1013.7 1013.7 0.0
20/05:00pm 27.0 23.2 12.3 40 8.5 SSW 24 28 13 15 1013.7 1013.7 0.0
20/04:30pm 27.4 25.2 12.2 39 8.8 SSW 15 20 8 11 1013.8 1013.8 0.0
20/04:00pm 27.5 24.5 10.7 35 9.5 SSW 17 22 9 12 1013.7 1013.7 0.0
20/03:30pm 27.9 23.9 9.2 31 10.3 SSW 20 26 11 14 1013.7 1013.7 0.0
20/03:00pm 27.9 24.1 9.7 32 10.1 S 20 28 11 15 1014.0 1014.0 0.0
20/02:30pm 28.0 23.6 7.3 27 11.1 S 20 26 11 14 1014.3 1014.3 0.0
20/02:00pm 27.8 23.1 7.6 28 10.8 S 22 28 12 15 1014.7 1014.7 0.0
20/01:30pm 27.2 21.7 7.6 29 10.5 S 26 35 14 19 1015.0 1015.0 0.0
20/01:00pm 26.8 20.9 7.3 29 10.3 S 28 32 15 17 1015.2 1015.2 0.0
20/12:30pm 26.0 20.4 8.9 34 9.3 S 28 35 15 19 1015.9 1015.9 0.0
20/12:00pm 25.3 19.4 9.2 36 8.8 S 30 37 16 20 1016.2 1016.2 0.0
20/11:30am 24.8 18.6 9.5 38 8.4 S 32 41 17 22 1016.5 1016.5 0.0
20/11:00am 24.3 17.9 9.5 39 8.0 S 33 39 18 21 1016.9 1016.9 0.0
20/10:30am 23.6 18.3 11.3 46 6.9 S 30 39 16 21 1017.0 1017.0 0.0
20/10:00am 23.3 17.8 10.7 45 7.0 SSE 30 39 16 21 1017.1 1017.1 0.0
20/09:30am 22.0 15.8 10.2 47 6.4 SSE 33 41 18 22 1017.3 1017.3 0.0
20/09:00am 21.4 15.3 10.3 49 6.0 SSE 33 43 18 23 1017.5 1017.5 0.0
20/08:30am 20.5 13.8 10.9 54 5.3 SSE 37 46 20 25 1017.2 1017.2 0.0
20/08:00am 19.9 13.0 11.7 59 4.5 S 39 48 21 26 1016.9 1016.9 0.0
20/07:30am 19.4 12.4 11.2 59 4.5 S 39 48 21 26 1016.6 1016.6 0.0
20/07:00am 19.2 12.6 12.5 65 3.7 S 39 48 21 26 1016.2 1016.2 0.0
20/06:30am 19.0 12.1 12.7 67 3.5 S 41 50 22 27 1015.8 1015.8 0.0
20/06:00am 19.1 12.3 13.1 68 3.4 S 41 54 22 29 1015.4 1015.4 0.0
20/05:30am 19.3 13.0 13.5 69 3.3 S 39 48 21 26 1015.1 1015.1 0.0
20/05:00am 19.5 12.5 13.7 69 3.3 S 43 54 23 29 1014.7 1014.7 0.0
20/04:30am 19.7 12.7 13.6 68 3.5 S 43 54 23 29 1014.3 1014.3 0.0
20/04:00am 20.1 13.1 14.2 69 3.4 S 44 56 24 30 1014.3 1014.3 0.0
20/03:30am 20.3 13.0 14.4 69 3.4 S 46 56 25 30 1014.1 1014.1 0.0
20/03:00am 20.7 14.0 15.0 70 3.4 S 44 54 24 29 1014.0 1014.0 0.0
20/02:30am 21.0 15.2 16.0 73 3.0 S 41 52 22 28 1014.1 1014.1 0.0
20/02:00am 21.2 14.3 15.7 71 3.3 SSW 46 59 25 32 1014.0 1014.0 0.0
20/01:30am 21.4 15.4 16.4 73 3.0 SSW 43 54 23 29 1014.0 1014.0 0.0
20/01:00am 21.6 15.7 16.6 73 3.0 SSW 43 54 23 29 1014.1 1014.1 0.0
20/12:30am 21.6 15.7 16.8 74 2.9 SSW 43 52 23 28 1014.2 1014.2 0.0
20/12:00am 21.8 15.9 16.7 73 3.1 SSW 43 50 23 27 1014.3 1014.3 0.0
 
Date/Time
WST
Temp
°C
App
Temp
°C
Dew
Point
°C
Rel
Hum
%
Delta-T
°C
Wind Press
QNH
hPa
Press
MSL
hPa
Rain since
9am
mm
Dir  Spd
km/h
Gust
km/h
Spd
kts
Gust
kts
19/11:30pm 22.1 17.1 17.0 73 3.1 SSW 39 54 21 29 1014.8 1014.8 0.0
19/11:00pm 22.3 16.8 16.8 71 3.4 SSW 41 54 22 29 1014.8 1014.8 0.0
19/10:30pm 22.4 18.0 17.5 74 3.0 SW 37 50 20 27 1015.0 1015.0 0.0
19/10:00pm 22.6 17.6 17.1 71 3.4 SW 39 48 21 26 1015.0 1015.0 0.0
19/09:30pm 23.2 19.0 18.1 73 3.2 SW 37 48 20 26 1014.9 1014.9 0.0
19/09:00pm 23.4 19.3 18.3 73 3.2 SW 37 48 20 26 1014.8 1014.8 0.0
19/08:30pm 23.8 19.6 17.1 66 4.1 SW 35 46 19 25 1014.4 1014.4 0.0
19/08:00pm 24.1 21.5 17.8 68 3.9 SW 28 37 15 20 1014.0 1014.0 0.0
19/07:30pm 23.9 22.0 17.6 68 3.9 WSW 24 35 13 19 1013.7 1013.7 0.0
19/07:00pm 23.7 21.9 17.9 70 3.6 WSW 24 32 13 17 1013.4 1013.4 0.0
19/06:30pm 23.7 21.9 17.9 70 3.6 WSW 24 32 13 17 1012.9 1012.9 0.0
19/06:00pm 24.3 23.1 17.5 66 4.2 WSW 20 28 11 15 1012.8 1012.8 0.0
19/05:30pm 24.8 23.6 18.5 68 4.0 W 22 28 12 15 1012.7 1012.7 0.0
19/05:00pm 25.1 23.6 18.5 67 4.2 W 24 32 13 17 1012.6 1012.6 0.0
19/04:30pm 25.3 23.3 18.2 64 4.5 WSW 26 35 14 19 1012.5 1012.5 0.0
19/04:00pm 26.0 23.7 17.6 60 5.3 W 26 35 14 19 1012.3 1012.3 0.0
19/03:30pm 26.0 23.5 17.1 58 5.5 WSW 26 35 14 19 1012.5 1012.5 0.0
19/03:00pm 26.8 24.3 17.0 55 6.1 WSW 26 35 14 19 1012.6 1012.6 0.0
19/02:30pm 27.0 24.7 17.5 56 6.0 WSW 26 33 14 18 1012.7 1012.7 0.0
19/02:00pm 26.9 24.3 16.8 54 6.3 WSW 26 35 14 19 1013.0 1013.0 0.0
19/01:30pm 27.1 24.9 17.0 54 6.3 WSW 24 33 13 18 1013.2 1013.2 0.0
19/01:00pm 26.4 23.8 17.7 58 5.5 SW 28 35 15 19 1013.3 1013.3 0.0
19/12:30pm 25.9 23.1 18.3 63 4.8 SW 30 37 16 20 1013.5 1013.5 0.0
19/12:00pm 25.4 23.9 17.6 62 4.9 WSW 22 32 12 17 1014.3 1014.3 0.0
19/11:30am 25.9 24.8 17.8 61 5.1 WSW 20 26 11 14 1014.8 1014.8 0.0
19/11:00am 25.5 24.4 17.4 61 5.1 SW 19 24 10 13 1015.3 1015.3 0.0
19/10:30am 24.3 23.5 17.1 64 4.5 SW 17 24 9 13 1015.5 1015.5 0.0
19/10:00am 24.0 23.2 17.0 65 4.3 SW 17 24 9 13 1015.5 1015.5 0.0
19/09:30am 24.1 22.9 17.1 65 4.3 SSW 19 26 10 14 1015.5 1015.5 0.0

Other formats

Comma delimited format used in spreadsheet applications
http://www.bom.gov.au/fwo/IDW60801/IDW60801.94303.axf

JavaScript Object Notation format (JSON) in row-major order
http://www.bom.gov.au/fwo/IDW60801/IDW60801.94303.json

Data quality

Most of these data are generated automatically and are frequently updated. Quality checks on data are not normally performed. It is possible for incorrect values to appear. Refer to information at About Latest Weather Observations and please check the disclaimer before using these data.